Time;durP1;ratioP1;P1;durP2;ratioP2;P2;SDS_P1;SDS_P2;PMS_P1;PMS_P2;Temp;Humidity;BMP_temperature;BMP_pressure;BME280_temperature;BME280_humidity;BME280_pressure;Samples;Min_cycle;Max_cycle;Signal;HPM_P1;HPM_P2
2022/08/06 00:02:37;;;;;;;3.00;2.73;;;;;25.90;99387.00;;;;16582518;28;20281;-46
2022/08/06 00:10:40;;;;;;;2.57;2.37;;;;;26.00;99389.00;;;;16580881;28;20239;-46
2022/08/06 00:18:44;;;;;;;3.80;2.30;;;;;25.40;99386.00;;;;16579783;28;20401;-46
2022/08/06 00:26:46;;;;;;;2.77;2.57;;;;;25.90;99382.00;;;;16571152;28;20203;-46
2022/08/06 00:34:50;;;;;;;3.47;2.47;;;;;25.50;99396.00;;;;16599801;28;20223;-46
2022/08/06 00:42:52;;;;;;;2.37;2.17;;;;;24.30;99394.00;;;;16581729;28;20242;-46
2022/08/06 00:50:56;;;;;;;2.90;2.37;;;;;24.60;99394.00;;;;16578107;28;20218;-46
2022/08/06 00:58:59;;;;;;;3.17;2.20;;;;;25.40;99404.00;;;;16580224;28;20233;-46
2022/08/06 01:07:02;;;;;;;2.30;1.97;;;;;25.40;99414.00;;;;16581631;28;20223;-46
2022/08/06 01:15:06;;;;;;;2.30;2.10;;;;;24.70;99428.00;;;;16583851;28;20734;-46
2022/08/06 01:23:24;;;;;;;2.63;2.20;;;;;25.00;99431.00;;;;16579865;28;20215;-47
2022/08/06 01:31:33;;;;;;;6.07;2.40;;;;;25.40;99440.00;;;;16582087;28;20221;-46
2022/08/06 01:39:37;;;;;;;2.03;1.93;;;;;26.20;99420.00;;;;16581377;28;20231;-46
2022/08/06 01:47:44;;;;;;;2.73;2.07;;;;;26.00;99426.00;;;;16577309;28;20656;-46
2022/08/06 01:55:51;;;;;;;2.37;1.80;;;;;26.10;99422.00;;;;16578693;28;20247;-46
2022/08/06 02:03:57;;;;;;;2.20;1.73;;;;;25.50;99418.00;;;;16581458;28;20314;-46
2022/08/06 02:12:03;;;;;;;4.73;2.40;;;;;24.10;99442.00;;;;16579425;28;20348;-46
2022/08/06 02:20:10;;;;;;;2.17;1.67;;;;;24.80;99441.00;;;;16576383;28;20237;-46
2022/08/06 02:28:15;;;;;;;2.03;1.83;;;;;24.60;99443.00;;;;16579211;28;20274;-46
2022/08/06 02:36:21;;;;;;;3.73;1.80;;;;;25.60;99446.00;;;;16579189;28;20699;-46
2022/08/06 02:44:35;;;;;;;2.60;1.70;;;;;26.20;99448.00;;;;16587747;28;20233;-46
2022/08/06 02:52:41;;;;;;;2.10;1.73;;;;;24.60;99443.00;;;;16587233;28;20229;-46
2022/08/06 03:00:45;;;;;;;2.10;1.73;;;;;25.60;99444.00;;;;16588017;28;20273;-46
2022/08/06 03:17:00;;;;;;;1.87;1.70;;;;;25.50;99451.00;;;;16665551;28;20229;-47
2022/08/06 03:25:03;;;;;;;2.90;1.87;;;;;25.40;99464.00;;;;16654794;28;20318;-47
2022/08/06 03:33:10;;;;;;;2.40;1.70;;;;;25.60;99462.00;;;;16652927;28;20218;-47
2022/08/06 03:41:14;;;;;;;4.37;2.20;;;;;25.20;99470.00;;;;16629960;28;20310;-47
2022/08/06 03:49:20;;;;;;;1.77;1.67;;;;;24.20;99486.00;;;;16615842;28;20233;-47
2022/08/06 03:57:27;;;;;;;1.97;1.70;;;;;25.00;99488.00;;;;16652343;28;20217;-47
2022/08/06 04:05:31;;;;;;;2.27;1.93;;;;;24.00;99500.00;;;;16644299;28;20365;-47
2022/08/06 04:13:34;;;;;;;4.40;2.17;;;;;25.00;99499.00;;;;16623623;28;20233;-47
2022/08/06 04:21:38;;;;;;;3.43;1.90;;;;;25.20;99507.00;;;;16621348;28;20729;-47
2022/08/06 04:29:41;;;;;;;3.93;1.77;;;;;24.70;99512.00;;;;16634722;28;20687;-47
2022/08/06 04:37:45;;;;;;;3.30;2.20;;;;;24.00;99517.00;;;;16644973;28;20265;-47
2022/08/06 04:45:48;;;;;;;2.50;1.43;;;;;25.60;99525.00;;;;16651051;28;20222;-48
2022/08/06 04:53:52;;;;;;;2.63;1.60;;;;;25.80;99522.00;;;;16646676;28;20718;-47
2022/08/06 05:01:55;;;;;;;3.87;2.33;;;;;25.60;99540.00;;;;16644885;28;20305;-48
2022/08/06 05:10:00;;;;;;;3.73;2.03;;;;;25.00;99548.00;;;;16646486;28;20329;-47
2022/08/06 05:18:07;;;;;;;2.60;1.87;;;;;25.10;99564.00;;;;16645357;28;20560;-47
2022/08/06 05:26:11;;;;;;;6.00;2.73;;;;;25.50;99572.00;;;;16643053;28;20302;-47
2022/08/06 05:34:14;;;;;;;2.00;1.80;;;;;25.50;99577.00;;;;16643947;28;20294;-48
2022/08/06 05:42:18;;;;;;;2.57;2.30;;;;;24.40;99580.00;;;;16636545;28;20218;-47
2022/08/06 05:50:24;;;;;;;5.50;2.20;;;;;23.50;99593.00;;;;16638308;28;20223;-47
2022/08/06 05:58:32;;;;;;;4.57;3.00;;;;;23.80;99594.00;;;;16634213;28;20206;-47
2022/08/06 06:06:35;;;;;;;3.13;2.63;;;;;24.10;99603.00;;;;16645442;28;20222;-47
2022/08/06 06:14:42;;;;;;;6.00;2.27;;;;;24.60;99607.00;;;;16642061;28;20221;-47
2022/08/06 06:22:51;;;;;;;5.57;2.43;;;;;24.00;99599.00;;;;16631246;28;20223;-47
2022/08/06 06:30:59;;;;;;;2.60;2.40;;;;;24.20;99607.00;;;;16645664;28;20310;-48
2022/08/06 06:39:06;;;;;;;5.20;2.77;;;;;25.50;99617.00;;;;16650188;28;20206;-48
2022/08/06 06:47:17;;;;;;;7.50;3.07;;;;;25.80;99620.00;;;;16649046;28;20197;-47
2022/08/06 06:55:25;;;;;;;3.50;2.50;;;;;23.10;99626.00;;;;16653627;28;20726;-49
2022/08/06 07:03:30;;;;;;;3.20;2.40;;;;;22.70;99638.00;;;;16641734;28;20615;-50
2022/08/06 07:11:33;;;;;;;4.00;2.67;;;;;22.60;99645.00;;;;16637432;28;20905;-48
2022/08/06 07:19:37;;;;;;;2.57;2.37;;;;;22.10;99644.00;;;;16634255;28;20789;-47
2022/08/06 07:27:42;;;;;;;4.43;2.70;;;;;22.70;99648.00;;;;16643760;28;20207;-48
2022/08/06 07:35:47;;;;;;;3.00;2.73;;;;;22.60;99653.00;;;;16652025;28;20231;-48
2022/08/06 07:43:54;;;;;;;6.83;2.90;;;;;23.10;99647.00;;;;16654471;28;20234;-48
2022/08/06 07:51:58;;;;;;;5.80;2.57;;;;;23.70;99662.00;;;;16652815;28;20301;-48
2022/08/06 08:00:01;;;;;;;4.13;2.90;;;;;23.30;99649.00;;;;16652446;28;20230;-47
2022/08/06 08:08:05;;;;;;;4.43;2.93;;;;;24.00;99655.00;;;;16652066;28;20674;-49
2022/08/06 08:16:09;;;;;;;4.93;2.40;;;;;23.80;99650.00;;;;16652187;28;20226;-49
2022/08/06 08:24:13;;;;;;;3.17;2.90;;;;;23.90;99646.00;;;;16650625;28;20219;-48
2022/08/06 08:32:15;;;;;;;3.77;2.70;;;;;24.10;99628.00;;;;16648015;28;20306;-49
2022/08/06 08:40:19;;;;;;;3.33;2.50;;;;;24.90;99629.00;;;;16653021;28;20365;-49
2022/08/06 08:48:27;;;;;;;2.60;2.50;;;;;25.10;99644.00;;;;16648851;28;20678;-49
2022/08/06 08:56:33;;;;;;;2.50;2.30;;;;;25.10;99641.00;;;;16649222;28;20730;-49
2022/08/06 09:04:36;;;;;;;2.40;1.90;;;;;25.80;99643.00;;;;16647547;28;20230;-48
2022/08/06 09:12:40;;;;;;;7.30;2.60;;;;;24.90;99640.00;;;;16645555;28;20228;-48
2022/08/06 09:20:42;;;;;;;2.70;2.50;;;;;25.00;99652.00;;;;16646678;28;20222;-48
2022/08/06 09:28:46;;;;;;;3.73;2.60;;;;;25.70;99650.00;;;;16645840;28;20202;-49
2022/08/06 09:36:50;;;;;;;2.73;2.53;;;;;25.40;99652.00;;;;16677953;22;20221;-78
2022/08/06 09:45:06;;;;;;;2.77;2.20;;;;;25.40;99645.00;;;;16762167;28;20234;-79
2022/08/06 09:53:09;;;;;;;2.40;2.10;;;;;25.70;99644.00;;;;16722929;28;20198;-79
2022/08/06 10:01:15;;;;;;;2.77;2.57;;;;;25.00;99648.00;;;;16706411;28;20232;-79
2022/08/06 10:09:18;;;;;;;3.10;2.33;;;;;25.30;99650.00;;;;16729833;28;20682;-78
2022/08/06 10:17:23;;;;;;;2.57;2.37;;;;;26.60;99651.00;;;;16701150;28;20249;-79
2022/08/06 10:25:28;;;;;;;2.40;2.20;;;;;26.30;99653.00;;;;16744163;28;20671;-79
2022/08/06 10:33:34;;;;;;;2.70;2.30;;;;;24.90;99651.00;;;;16740565;28;20691;-78
2022/08/06 10:41:38;;;;;;;3.27;2.93;;;;;26.30;99645.00;;;;16736576;28;20706;-79
2022/08/06 10:49:43;;;;;;;2.93;2.10;;;;;28.50;99643.00;;;;16694739;28;20224;-79
2022/08/06 10:57:46;;;;;;;2.10;1.83;;;;;27.80;99634.00;;;;16702684;28;20301;-80
2022/08/06 11:06:11;;;;;;;5.57;2.83;;;;;27.40;99629.00;;;;16719683;28;20766;-80
2022/08/06 11:14:14;;;;;;;3.60;2.70;;;;;27.50;99635.00;;;;16694573;28;20280;-79
2022/08/06 11:22:39;;;;;;;2.83;2.13;;;;;26.80;99621.00;;;;16684093;28;20241;-79
2022/08/06 11:30:44;;;;;;;3.47;2.20;;;;;27.20;99626.00;;;;16695620;28;20558;-80
2022/08/06 11:39:00;;;;;;;2.60;2.30;;;;;29.80;99595.00;;;;16706369;28;20238;-81
2022/08/06 11:47:16;;;;;;;2.27;2.07;;;;;29.80;99592.00;;;;16731294;22;20635;-47
2022/08/06 11:55:20;;;;;;;3.63;2.90;;;;;28.90;99594.00;;;;16707585;28;20213;-47
2022/08/06 12:03:38;;;;;;;5.20;2.40;;;;;28.50;99585.00;;;;16694185;28;20230;-46
2022/08/06 12:11:42;;;;;;;4.40;2.77;;;;;28.70;99573.00;;;;16690433;28;20222;-48
2022/08/06 12:19:45;;;;;;;3.97;2.33;;;;;28.80;99575.00;;;;16679324;28;20505;-48
2022/08/06 12:27:49;;;;;;;4.30;2.13;;;;;30.10;99576.00;;;;16702757;28;20214;-49
2022/08/06 12:35:52;;;;;;;2.40;2.20;;;;;27.00;99563.00;;;;16705950;28;20222;-48
2022/08/06 12:43:56;;;;;;;2.40;2.20;;;;;30.40;99545.00;;;;16708761;28;20232;-48
2022/08/06 12:52:12;;;;;;;3.50;2.00;;;;;30.60;99539.00;;;;16712967;28;20360;-48
2022/08/06 13:00:17;;;;;;;2.10;1.90;;;;;30.50;99531.00;;;;16702057;28;20229;-49
2022/08/06 13:08:21;;;;;;;1.93;1.83;;;;;28.80;99519.00;;;;16695856;28;20234;-47
2022/08/06 13:16:25;;;;;;;1.83;1.73;;;;;31.80;99526.00;;;;16707916;28;20301;-49
2022/08/06 13:24:28;;;;;;;1.70;1.60;;;;;32.30;99501.00;;;;16712490;28;20589;-48
2022/08/06 13:32:32;;;;;;;1.80;1.63;;;;;32.60;99500.00;;;;16704942;28;20702;-49
2022/08/06 13:40:44;;;;;;;3.00;2.47;;;;;29.40;99492.00;;;;16703712;28;20240;-47
2022/08/06 13:48:49;;;;;;;2.30;2.03;;;;;29.20;99494.00;;;;16711062;28;20225;-49
2022/08/06 13:56:52;;;;;;;2.57;2.37;;;;;32.70;99485.00;;;;16712686;28;20220;-49
2022/08/06 14:04:56;;;;;;;2.80;1.70;;;;;31.50;99471.00;;;;16689565;28;20749;-48
2022/08/06 14:13:17;;;;;;;1.93;1.60;;;;;29.60;99470.00;;;;16700632;28;20225;-48
2022/08/06 14:21:20;;;;;;;1.50;1.40;;;;;32.20;99464.00;;;;16706175;28;20266;-48
2022/08/06 14:29:23;;;;;;;1.73;1.30;;;;;33.30;99459.00;;;;16711425;28;20225;-49
2022/08/06 14:37:27;;;;;;;2.27;1.80;;;;;33.10;99466.00;;;;16703665;28;20311;-49
2022/08/06 14:45:29;;;;;;;3.00;2.00;;;;;31.10;99458.00;;;;16720552;28;20225;-49
2022/08/06 14:53:33;;;;;;;3.90;2.17;;;;;29.40;99448.00;;;;16718877;28;20745;-48
2022/08/06 15:01:35;;;;;;;2.20;1.50;;;;;33.00;99439.00;;;;16714194;28;20401;-49
2022/08/06 15:09:39;;;;;;;2.40;1.63;;;;;32.30;99434.00;;;;16706909;28;20742;-49
2022/08/06 15:17:41;;;;;;;1.70;1.57;;;;;30.80;99423.00;;;;16701878;28;20218;-49
2022/08/06 15:25:45;;;;;;;1.83;1.37;;;;;34.70;99424.00;;;;16720863;28;20225;-49
2022/08/06 15:33:48;;;;;;;2.57;1.93;;;;;34.30;99417.00;;;;16698817;28;20736;-49
2022/08/06 15:41:52;;;;;;;1.80;1.37;;;;;36.50;99421.00;;;;16744936;22;20248;-51
2022/08/06 15:49:54;;;;;;;3.57;1.57;;;;;33.40;99426.00;;;;16781300;28;20213;-50
2022/08/06 15:57:58;;;;;;;2.20;1.70;;;;;33.40;99419.00;;;;16706135;28;20217;-51
2022/08/06 16:06:00;;;;;;;3.47;1.83;;;;;34.10;99415.00;;;;16701297;28;20277;-51
2022/08/06 16:14:04;;;;;;;5.83;5.33;;;;;31.20;99416.00;;;;16715170;28;20416;-51
2022/08/06 16:22:06;;;;;;;2.50;1.60;;;;;30.70;99408.00;;;;16714949;28;20222;-48
2022/08/06 16:30:13;;;;;;;23.87;21.87;;;;;32.10;99401.00;;;;16716810;28;20726;-49
2022/08/06 16:38:15;;;;;;;4.17;2.77;;;;;33.50;99398.00;;;;16711455;28;20748;-51
2022/08/06 16:46:19;;;;;;;2.60;1.60;;;;;35.90;99393.00;;;;16715058;28;20744;-51
2022/08/06 16:54:21;;;;;;;1.87;1.33;;;;;36.80;99402.00;;;;16696098;28;20935;-49
2022/08/06 17:02:37;;;;;;;4.73;1.60;;;;;36.40;99392.00;;;;16701235;28;20236;-50
2022/08/06 17:10:40;;;;;;;3.97;2.23;;;;;34.40;99384.00;;;;16714862;28;20669;-49
2022/08/06 17:18:44;;;;;;;2.20;1.73;;;;;34.20;99388.00;;;;16715626;28;20292;-49
2022/08/06 17:26:46;;;;;;;1.93;1.70;;;;;31.60;99388.00;;;;16703245;28;20223;-50
2022/08/06 17:34:50;;;;;;;3.13;1.73;;;;;32.90;99389.00;;;;16701007;28;20567;-51
2022/08/06 17:42:52;;;;;;;2.70;1.50;;;;;34.50;99384.00;;;;16705862;28;20696;-51
2022/08/06 17:50:56;;;;;;;1.60;1.30;;;;;35.60;99386.00;;;;16698470;28;20225;-50
2022/08/06 17:59:00;;;;;;;2.50;1.40;;;;;33.60;99395.00;;;;16715582;28;20276;-49
2022/08/06 18:07:06;;;;;;;1.23;1.07;;;;;34.50;99401.00;;;;16706868;28;20222;-50
2022/08/06 18:15:09;;;;;;;1.60;1.13;;;;;31.70;99405.00;;;;16704242;28;20757;-48
2022/08/06 18:23:13;;;;;;;3.30;1.70;;;;;31.50;99418.00;;;;16709678;28;20558;-48
2022/08/06 18:31:16;;;;;;;7.57;5.10;;;;;30.50;99426.00;;;;16737641;28;20336;-47
2022/08/06 18:39:20;;;;;;;5.63;2.40;;;;;30.40;99433.00;;;;16713585;28;20260;-47
2022/08/06 18:47:23;;;;;;;1.77;1.20;;;;;29.70;99443.00;;;;16697115;28;20640;-46
2022/08/06 18:55:27;;;;;;;1.87;1.33;;;;;29.60;99454.00;;;;16721112;28;20222;-47
2022/08/06 19:03:29;;;;;;;1.80;1.20;;;;;29.20;99449.00;;;;16732932;28;20283;-46
2022/08/06 19:11:34;;;;;;;2.37;1.20;;;;;29.00;99456.00;;;;16744205;28;20327;-46
2022/08/06 19:19:37;;;;;;;1.13;0.90;;;;;28.90;99463.00;;;;16743046;28;20206;-46
2022/08/06 19:27:41;;;;;;;1.10;1.00;;;;;28.70;99462.00;;;;16710293;28;20244;-46
2022/08/06 19:35:45;;;;;;;2.17;1.30;;;;;28.70;99456.00;;;;16709618;28;20304;-46
2022/08/06 19:43:49;;;;;;;1.50;1.20;;;;;28.00;99456.00;;;;16742128;28;20362;-46
2022/08/06 19:51:51;;;;;;;3.23;2.10;;;;;26.50;99454.00;;;;16719913;28;20736;-46
2022/08/06 19:59:55;;;;;;;3.00;1.83;;;;;25.50;99459.00;;;;16716324;28;20232;-46
2022/08/06 20:07:57;;;;;;;3.27;2.40;;;;;24.40;99463.00;;;;16741030;28;20221;-46
2022/08/06 20:16:02;;;;;;;3.07;2.53;;;;;22.70;99472.00;;;;16745220;28;20299;-46
2022/08/06 20:24:05;;;;;;;3.30;2.30;;;;;23.00;99483.00;;;;16743526;28;20226;-46
2022/08/06 20:32:08;;;;;;;2.33;2.03;;;;;22.40;99483.00;;;;16738359;28;20234;-46
2022/08/06 20:40:15;;;;;;;1.90;1.70;;;;;21.90;99473.00;;;;16713217;28;20233;-46
2022/08/06 20:48:19;;;;;;;1.80;1.70;;;;;21.60;99475.00;;;;16713761;28;20222;-46
2022/08/06 20:56:23;;;;;;;3.73;2.17;;;;;22.10;99474.00;;;;16707642;28;20584;-46
2022/08/06 21:04:28;;;;;;;2.67;1.83;;;;;21.30;99473.00;;;;16710320;28;20278;-46
2022/08/06 21:12:30;;;;;;;2.10;1.90;;;;;21.20;99467.00;;;;16695737;28;20304;-46
2022/08/06 21:20:34;;;;;;;1.90;1.70;;;;;21.80;99468.00;;;;16712789;28;20245;-46
2022/08/06 21:28:37;;;;;;;1.90;1.70;;;;;21.00;99470.00;;;;16698404;28;20222;-46
2022/08/06 21:36:40;;;;;;;1.93;1.70;;;;;20.80;99471.00;;;;16701664;28;20216;-46
2022/08/06 21:44:43;;;;;;;1.80;1.00;;;;;20.50;99479.00;;;;16712217;28;20255;-46
2022/08/06 21:52:48;;;;;;;3.40;1.50;;;;;20.30;99480.00;;;;16695039;22;20313;-76
2022/08/06 22:00:50;;;;;;;1.87;1.40;;;;;20.80;99481.00;;;;16625444;28;20626;-77
2022/08/06 22:08:55;;;;;;;2.30;1.40;;;;;20.00;99490.00;;;;16623046;28;20282;-76
2022/08/06 22:16:58;;;;;;;1.47;1.30;;;;;20.30;99481.00;;;;16628165;28;20219;-76
2022/08/06 22:25:02;;;;;;;3.87;1.57;;;;;20.00;99482.00;;;;16628250;28;20221;-76
2022/08/06 22:33:06;;;;;;;1.83;1.73;;;;;20.00;99473.00;;;;16622860;28;20310;-76
2022/08/06 22:41:10;;;;;;;2.30;1.40;;;;;20.40;99463.00;;;;16615293;28;20223;-76
2022/08/06 22:49:13;;;;;;;1.90;1.50;;;;;20.40;99471.00;;;;16639467;28;20257;-77
2022/08/06 22:57:16;;;;;;;1.57;1.40;;;;;19.20;99455.00;;;;16650543;28;20244;-76
2022/08/06 23:05:19;;;;;;;1.90;1.30;;;;;21.40;99448.00;;;;16638964;28;20358;-76
2022/08/06 23:13:23;;;;;;;2.30;1.47;;;;;20.50;99446.00;;;;16637563;28;20813;-76
2022/08/06 23:21:30;;;;;;;3.73;1.43;;;;;21.30;99437.00;;;;16639471;28;20218;-77
2022/08/06 23:29:35;;;;;;;2.90;1.57;;;;;19.30;99447.00;;;;16654208;28;20250;-76
2022/08/06 23:37:37;;;;;;;2.20;1.70;;;;;19.30;99442.00;;;;16634260;28;20306;-76
2022/08/06 23:45:41;;;;;;;1.57;1.33;;;;;22.50;99435.00;;;;16648154;28;20306;-77
2022/08/06 23:53:44;;;;;;;1.90;1.50;;;;;20.10;99433.00;;;;16659409;28;20711;-76
